createdAt,value
2018-09-28T00:01:03.682Z,0.53
2018-09-28T00:03:31.319Z,0.97
2018-09-28T00:05:58.970Z,0.90
2018-09-28T00:08:26.570Z,0.90
2018-09-28T00:10:54.494Z,0.80
2018-09-28T00:13:22.062Z,0.77
2018-09-28T00:15:49.759Z,0.80
2018-09-28T00:18:17.353Z,0.40
2018-09-28T00:20:45.008Z,0.60
2018-09-28T00:23:12.616Z,0.60
2018-09-28T00:25:40.308Z,0.90
2018-09-28T00:28:07.983Z,0.70
2018-09-28T00:30:35.556Z,0.80
2018-09-28T00:33:03.179Z,0.60
2018-09-28T00:35:30.680Z,0.60
2018-09-28T00:37:58.299Z,0.50
2018-09-28T00:40:25.889Z,0.60
2018-09-28T00:42:54.658Z,1.87
2018-09-28T00:45:22.214Z,0.60
2018-09-28T00:47:49.857Z,1.03
2018-09-28T00:50:17.884Z,0.70
2018-09-28T00:52:45.502Z,1.10
2018-09-28T00:55:13.588Z,0.60
2018-09-28T00:57:41.116Z,0.90
2018-09-28T01:00:08.751Z,0.60
2018-09-28T01:02:36.418Z,0.80
2018-09-28T01:05:05.140Z,0.63
2018-09-28T01:07:33.471Z,0.70
2018-09-28T01:10:01.698Z,2.00
2018-09-28T01:12:29.491Z,0.60
2018-09-28T01:14:57.048Z,0.50
2018-09-28T01:17:24.591Z,0.60
2018-09-28T01:19:52.931Z,0.70
2018-09-28T01:22:20.948Z,0.60
2018-09-28T01:24:48.627Z,0.63
2018-09-28T01:27:16.351Z,1.00
2018-09-28T01:29:43.914Z,0.53
2018-09-28T01:32:11.415Z,0.80
2018-09-28T01:34:39.650Z,1.07
2018-09-28T01:37:08.267Z,0.60
2018-09-28T01:39:35.862Z,0.70
2018-09-28T01:42:04.152Z,0.60
2018-09-28T01:44:31.962Z,0.70
2018-09-28T01:46:59.493Z,0.60
2018-09-28T01:49:27.168Z,0.50
2018-09-28T01:51:54.762Z,0.50
2018-09-28T01:54:23.007Z,0.60
2018-09-28T01:56:51.265Z,0.50
2018-09-28T01:59:19.035Z,0.80
2018-09-28T02:01:46.714Z,0.60
2018-09-28T02:04:14.276Z,0.60
2018-09-28T02:06:41.933Z,0.53
2018-09-28T02:09:14.485Z,0.70
2018-09-28T02:11:42.143Z,0.60
2018-09-28T02:14:10.412Z,0.47
2018-09-28T02:16:37.967Z,0.67
2018-09-28T02:19:05.600Z,0.60
2018-09-28T02:21:33.199Z,0.60
2018-09-28T02:24:00.902Z,0.60
2018-09-28T02:26:28.485Z,0.70
2018-09-28T02:28:56.662Z,1.43
2018-09-28T02:31:24.443Z,0.63
2018-09-28T02:33:51.994Z,0.60
2018-09-28T02:36:19.690Z,0.50
2018-09-28T02:38:47.360Z,0.73
2018-09-28T02:41:15.043Z,0.50
2018-09-28T02:43:42.643Z,0.63
2018-09-28T02:46:10.271Z,0.80
2018-09-28T02:48:37.846Z,1.93
2018-09-28T02:51:05.790Z,0.80
2018-09-28T02:53:33.327Z,0.50
2018-09-28T02:56:00.978Z,1.13
2018-09-28T02:58:29.231Z,0.90
2018-09-28T03:00:57.538Z,0.60
2018-09-28T03:03:25.075Z,0.60
2018-09-28T03:05:52.669Z,0.53
2018-09-28T03:08:20.947Z,0.50
2018-09-28T03:10:48.486Z,0.70
2018-09-28T03:13:16.071Z,0.60
2018-09-28T03:15:43.574Z,1.93
2018-09-28T03:18:11.151Z,0.70
2018-09-28T03:20:38.684Z,0.40
2018-09-28T03:23:06.285Z,1.10
2018-09-28T03:25:33.965Z,0.67
2018-09-28T03:28:01.643Z,1.73
2018-09-28T03:30:29.178Z,0.83
2018-09-28T03:32:57.479Z,0.60
2018-09-28T03:35:25.089Z,0.70
2018-09-28T03:37:52.646Z,0.60
2018-09-28T03:40:20.290Z,0.70
2018-09-28T03:42:47.825Z,0.63
2018-09-28T03:45:15.430Z,0.70
2018-09-28T03:47:45.953Z,1.03
2018-09-28T03:50:13.718Z,0.63
2018-09-28T03:52:41.259Z,0.80
2018-09-28T03:55:08.838Z,0.60
2018-09-28T03:57:37.082Z,0.80
2018-09-28T04:00:04.956Z,0.87
2018-09-28T04:02:32.591Z,1.20
2018-09-28T04:05:00.354Z,0.70
2018-09-28T04:07:27.892Z,0.57
2018-09-28T04:09:55.508Z,0.77
2018-09-28T04:12:23.237Z,0.57
2018-09-28T04:14:50.809Z,0.80
2018-09-28T04:17:18.654Z,0.50
2018-09-28T04:19:46.188Z,1.73
2018-09-28T04:22:13.692Z,0.63
2018-09-28T04:24:41.168Z,0.70
2018-09-28T04:27:08.631Z,0.60
2018-09-28T04:29:36.119Z,0.90
2018-09-28T04:32:04.206Z,0.90
2018-09-28T04:34:31.782Z,0.77
2018-09-28T04:36:59.357Z,1.07
2018-09-28T04:39:26.954Z,0.80
2018-09-28T04:41:54.442Z,0.70
2018-09-28T04:44:22.219Z,1.33
2018-09-28T04:46:49.729Z,0.70
2018-09-28T04:49:17.330Z,0.70
2018-09-28T04:51:44.955Z,0.60
2018-09-28T04:54:12.596Z,0.60
2018-09-28T04:56:40.209Z,0.70
2018-09-28T04:59:08.135Z,0.50
2018-09-28T05:01:35.715Z,0.83
2018-09-28T05:04:03.306Z,0.70
2018-09-28T05:06:30.863Z,0.80
2018-09-28T05:08:58.708Z,0.90
2018-09-28T05:11:26.283Z,0.77
2018-09-28T05:13:54.559Z,0.60
2018-09-28T05:16:22.190Z,0.50
2018-09-28T05:18:49.884Z,0.60
2018-09-28T05:21:17.493Z,0.50
2018-09-28T05:23:44.926Z,0.70
2018-09-28T05:26:12.538Z,1.17
2018-09-28T05:28:40.181Z,0.73
2018-09-28T05:31:07.796Z,0.63
2018-09-28T05:33:35.311Z,0.80
2018-09-28T05:36:02.870Z,1.30
2018-09-28T05:38:30.571Z,0.60
2018-09-28T05:40:58.205Z,0.70
2018-09-28T05:43:25.774Z,1.17
2018-09-28T05:45:53.353Z,0.63
2018-09-28T05:48:21.008Z,0.53
2018-09-28T05:50:48.703Z,1.17
2018-09-28T05:53:16.629Z,0.50
2018-09-28T05:55:44.267Z,0.60
2018-09-28T05:58:17.452Z,0.60
2018-09-28T06:00:50.703Z,0.67
2018-09-28T06:03:19.628Z,0.80
2018-09-28T06:05:52.746Z,0.83
2018-09-28T06:08:20.394Z,0.50
2018-09-28T06:10:48.795Z,0.93
2018-09-28T06:13:16.935Z,0.83
2018-09-28T06:15:44.609Z,0.70
2018-09-28T06:18:18.560Z,0.80
2018-09-28T06:20:46.423Z,0.63
2018-09-28T06:23:14.086Z,0.90
2018-09-28T06:26:01.054Z,0.67
2018-09-28T06:28:34.367Z,0.50
2018-09-28T06:34:49.486Z,0.67
2018-09-28T06:40:11.215Z,0.60
2018-09-28T06:42:39.398Z,0.50
2018-09-28T06:45:35.027Z,0.83
2018-09-28T06:48:17.344Z,0.70
2018-09-28T06:50:45.643Z,0.60
2018-09-28T07:33:44.695Z,1.20
2018-09-28T07:36:12.667Z,0.80
2018-09-28T07:38:40.177Z,0.93
2018-09-28T07:41:07.810Z,1.10
2018-09-28T07:43:35.462Z,0.90
2018-09-28T07:46:03.339Z,1.53
2018-09-28T07:48:30.870Z,1.27
2018-09-28T07:51:03.477Z,1.37
2018-09-28T07:53:31.247Z,1.53
2018-09-28T07:55:59.232Z,0.87
2018-09-28T07:58:26.787Z,1.10
2018-09-28T08:00:54.407Z,1.47
2018-09-28T08:03:28.083Z,1.73
2018-09-28T08:05:56.707Z,1.40
2018-09-28T08:08:24.402Z,0.87
2018-09-28T08:10:52.485Z,1.40
2018-09-28T08:13:20.456Z,0.87
2018-09-28T08:15:48.002Z,0.90
2018-09-28T08:18:16.811Z,1.03
2018-09-28T08:20:44.315Z,1.20
2018-09-28T08:23:12.069Z,1.80
2018-09-28T08:25:40.391Z,1.10
2018-09-28T08:28:07.881Z,1.80
2018-09-28T08:30:35.730Z,1.77
2018-09-28T08:33:03.243Z,1.30
2018-09-28T08:35:30.878Z,2.40
2018-09-28T08:37:58.478Z,1.47
2018-09-28T08:40:26.088Z,2.80
2018-09-28T08:42:53.559Z,1.53
2018-09-28T08:45:21.144Z,2.00
2018-09-28T08:47:50.444Z,1.40
2018-09-28T08:50:17.998Z,2.13
2018-09-28T08:52:45.641Z,2.00
2018-09-28T08:55:14.312Z,1.97
2018-09-28T08:57:43.360Z,1.97
2018-09-28T09:00:10.987Z,1.73
2018-09-28T09:02:38.487Z,1.73
2018-09-28T09:05:06.061Z,1.90
2018-09-28T09:07:34.389Z,1.10
2018-09-28T09:10:03.298Z,1.80
2018-09-28T09:12:31.913Z,2.17
2018-09-28T09:15:01.463Z,1.50
2018-09-28T09:17:31.666Z,2.90
2018-09-28T09:22:41.572Z,2.20
2018-09-28T09:25:15.130Z,2.20
2018-09-28T09:27:44.663Z,3.03
2018-09-28T09:30:13.267Z,2.17
2018-09-28T09:32:46.425Z,2.63
2018-09-28T09:35:16.512Z,2.50
2018-09-28T09:37:45.403Z,2.27
2018-09-28T09:40:15.735Z,3.10
2018-09-28T09:42:45.046Z,2.67
2018-09-28T09:45:18.735Z,2.17
2018-09-28T09:47:53.424Z,1.80
2018-09-28T09:50:21.429Z,2.10
2018-09-28T09:52:50.085Z,2.20
2018-09-28T09:55:23.335Z,2.07
2018-09-28T09:57:51.903Z,2.37
2018-09-28T10:02:29.400Z,1.97
2018-09-28T10:04:57.769Z,1.30
2018-09-28T10:07:27.759Z,1.87
2018-09-28T10:09:56.034Z,1.70
2018-09-28T10:12:30.156Z,2.63
2018-09-28T10:15:06.064Z,1.70
2018-09-28T10:17:33.999Z,2.23
2018-09-28T10:23:05.368Z,1.40
2018-09-28T10:25:36.207Z,1.73
2018-09-28T10:28:07.100Z,1.50
2018-09-28T10:30:37.007Z,1.23
2018-09-28T10:33:06.626Z,1.63
2018-09-28T10:35:35.768Z,1.20
2018-09-28T10:38:05.304Z,1.20
2018-09-28T10:40:34.884Z,1.47
2018-09-28T10:43:03.795Z,1.20
2018-09-28T10:45:34.541Z,1.80
2018-09-28T10:48:04.054Z,1.00
2018-09-28T10:50:35.241Z,1.70
2018-09-28T10:53:05.926Z,1.50
2018-09-28T10:55:44.609Z,1.33
2018-09-28T10:58:23.210Z,1.63
2018-09-28T11:00:51.813Z,1.10
2018-09-28T11:03:20.440Z,1.80
2018-09-28T11:05:49.079Z,2.20
2018-09-28T11:08:17.368Z,1.03
2018-09-28T11:10:46.379Z,2.17
2018-09-28T11:13:16.760Z,1.27
2018-09-28T11:15:45.028Z,1.80
2018-09-28T11:18:13.875Z,1.77
2018-09-28T11:20:42.336Z,1.37
2018-09-28T11:23:10.371Z,1.67
2018-09-28T11:25:40.832Z,1.57
2018-09-28T11:28:12.809Z,1.43
2018-09-28T11:30:41.578Z,1.60
2018-09-28T11:33:13.749Z,1.53
2018-09-28T11:35:45.914Z,1.37
2018-09-28T11:38:13.836Z,1.37
2018-09-28T11:54:43.098Z,2.47
2018-09-28T11:57:16.633Z,1.20
2018-09-28T11:59:47.209Z,3.83
2018-09-28T12:02:15.984Z,1.60
2018-09-28T12:04:44.612Z,1.97
2018-09-28T12:07:19.015Z,1.30
2018-09-28T12:09:47.793Z,1.07
2018-09-28T12:12:17.410Z,1.83
2018-09-28T12:14:49.482Z,1.60
2018-09-28T12:17:21.415Z,1.13
2018-09-28T12:19:54.539Z,1.30
2018-09-28T12:22:26.517Z,1.13
2018-09-28T12:24:58.554Z,1.00
2018-09-28T12:27:27.587Z,1.90
2018-09-28T12:32:37.045Z,1.20
2018-09-28T12:35:04.931Z,1.37
2018-09-28T12:37:38.723Z,1.03
2018-09-28T12:40:06.910Z,0.80
2018-09-28T12:42:34.607Z,0.80
2018-09-28T12:45:03.650Z,0.90
2018-09-28T12:47:32.275Z,0.80
2018-09-28T12:50:01.725Z,0.70
2018-09-28T12:52:36.084Z,0.63
2018-09-28T12:55:08.862Z,1.00
2018-09-28T12:57:39.918Z,0.90
2018-09-28T13:00:12.533Z,0.87
2018-09-28T13:02:44.740Z,0.80
2018-09-28T13:05:22.919Z,0.70
2018-09-28T13:07:57.920Z,1.00
2018-09-28T13:10:37.505Z,0.73
2018-09-28T13:13:15.144Z,1.03
2018-09-28T13:49:50.253Z,1.30
2018-09-28T13:52:25.782Z,1.07
2018-09-28T13:54:56.373Z,1.37
2018-09-28T13:57:28.566Z,1.00
2018-09-28T14:02:34.490Z,1.13
2018-09-28T14:05:04.605Z,1.10
2018-09-28T14:07:42.401Z,1.77
2018-09-28T14:10:10.635Z,1.13
2018-09-28T14:12:39.469Z,1.10
2018-09-28T14:15:09.424Z,1.13
2018-09-28T14:17:40.431Z,1.47
2018-09-28T14:20:10.357Z,1.57
2018-09-28T14:22:38.849Z,1.47
2018-09-28T14:25:11.935Z,1.43
2018-09-28T14:27:42.018Z,1.70
2018-09-28T14:30:09.962Z,1.13
2018-09-28T14:32:45.912Z,1.23
2018-09-28T14:35:15.923Z,2.00
2018-09-28T14:37:46.221Z,1.47
2018-09-28T14:40:15.151Z,1.00
2018-09-28T14:42:45.936Z,1.23
2018-09-28T14:47:57.848Z,1.10
2018-09-28T14:50:28.624Z,0.90
2018-09-28T14:53:00.128Z,1.10
2018-09-28T14:55:29.113Z,1.00
2018-09-28T14:57:58.295Z,1.30
2018-09-28T15:00:26.758Z,1.50
2018-09-28T15:02:55.580Z,0.87
2018-09-28T15:05:25.970Z,2.10
2018-09-28T15:07:54.866Z,0.67
2018-09-28T15:10:23.633Z,1.57
2018-09-28T15:12:51.733Z,1.23
2018-09-28T15:15:22.348Z,0.80
2018-09-28T15:17:51.359Z,0.70
2018-09-28T15:20:25.079Z,1.07
2018-09-28T15:22:54.922Z,0.83
2018-09-28T15:25:23.758Z,0.97
2018-09-28T15:27:52.320Z,1.10
2018-09-28T15:30:21.060Z,1.10
2018-09-28T15:32:49.579Z,0.93
2018-09-28T15:35:22.648Z,2.13
2018-09-28T15:37:51.487Z,1.00
2018-09-28T15:40:20.107Z,0.77
2018-09-28T15:42:48.902Z,0.80
2018-09-28T15:45:18.515Z,0.60
2018-09-28T15:47:48.307Z,0.80
2018-09-28T15:50:17.504Z,0.97
2018-09-28T15:52:55.758Z,0.80
2018-09-28T15:55:25.747Z,1.10
2018-09-28T15:57:57.436Z,1.00
2018-09-28T16:00:32.845Z,0.70
2018-09-28T16:03:08.526Z,0.80
2018-09-28T16:05:37.552Z,0.77
2018-09-28T16:08:07.132Z,0.60
2018-09-28T16:10:35.686Z,0.80
2018-09-28T16:13:03.398Z,0.70
2018-09-28T16:15:33.334Z,0.70
2018-09-28T16:18:07.822Z,0.90
2018-09-28T16:20:36.522Z,0.80
2018-09-28T16:23:07.020Z,0.67
2018-09-28T16:25:35.239Z,0.93
2018-09-28T16:28:03.883Z,1.47
2018-09-28T16:30:32.413Z,0.90
2018-09-28T16:33:01.532Z,0.90
2018-09-28T16:35:31.302Z,1.30
2018-09-28T16:38:00.148Z,0.70
2018-09-28T16:40:28.006Z,0.70
2018-09-28T16:42:56.876Z,0.80
2018-09-28T16:45:32.364Z,1.07
2018-09-28T16:48:02.215Z,0.90
2018-09-28T16:50:31.126Z,0.80
2018-09-28T16:53:01.293Z,0.93
2018-09-28T16:55:33.121Z,0.80
2018-09-28T16:58:04.081Z,0.50
2018-09-28T17:00:37.677Z,0.70
2018-09-28T17:03:13.524Z,0.70
2018-09-28T17:05:46.586Z,1.30
2018-09-28T17:08:17.634Z,0.70
2018-09-28T17:10:49.898Z,0.70
2018-09-28T17:13:17.710Z,0.40
2018-09-28T17:15:50.411Z,0.80
2018-09-28T17:18:21.852Z,1.03
2018-09-28T17:20:52.127Z,0.70
2018-09-28T17:23:22.889Z,0.73
2018-09-28T17:25:58.807Z,0.60
2018-09-28T17:28:37.573Z,0.60
2018-09-28T17:31:07.111Z,0.70
2018-09-28T17:33:36.982Z,0.87
2018-09-28T17:36:21.714Z,0.90
2018-09-28T17:38:52.916Z,0.70
2018-09-28T17:41:26.659Z,0.93
2018-09-28T17:43:56.155Z,0.60
2018-09-28T17:46:27.715Z,0.63
2018-09-28T17:49:00.989Z,0.80
2018-09-28T17:51:32.603Z,0.70
2018-09-28T17:54:03.324Z,0.80
2018-09-28T17:56:37.782Z,0.70
2018-09-28T17:59:09.855Z,0.60
2018-09-28T18:01:39.566Z,0.70
2018-09-28T18:04:11.515Z,0.60
2018-09-28T18:06:42.746Z,0.70
2018-09-28T18:09:14.142Z,0.60
2018-09-28T18:15:46.389Z,0.53
2018-09-28T18:18:17.060Z,0.70
2018-09-28T18:20:46.255Z,0.80
2018-09-28T18:23:14.431Z,0.60
2018-09-28T18:25:43.750Z,0.50
2018-09-28T18:28:13.272Z,0.80
2018-09-28T18:30:43.238Z,0.80
2018-09-28T18:33:12.450Z,0.90
2018-09-28T18:35:40.822Z,0.60
2018-09-28T18:38:09.508Z,0.90
2018-09-28T18:40:39.335Z,0.70
2018-09-28T18:43:08.592Z,0.67
2018-09-28T18:45:36.715Z,0.70
2018-09-28T18:48:09.437Z,0.60
2018-09-28T18:50:46.339Z,0.90
2018-09-28T18:53:14.513Z,0.70
2018-09-28T18:55:45.017Z,0.70
2018-09-28T18:58:16.456Z,0.70
2018-09-28T19:00:48.387Z,0.63
2018-09-28T19:03:29.437Z,1.00
2018-09-28T19:05:59.299Z,0.70
2018-09-28T19:08:27.424Z,1.17
2018-09-28T19:11:00.800Z,0.80
2018-09-28T19:13:32.897Z,0.70
2018-09-28T19:16:17.495Z,0.80
2018-09-28T19:18:47.831Z,0.93
2018-09-28T19:21:17.048Z,0.87
2018-09-28T19:23:50.159Z,0.70
2018-09-28T19:26:22.595Z,2.30
2018-09-28T19:28:51.149Z,0.70
2018-09-28T19:31:20.924Z,0.53
2018-09-28T19:33:49.136Z,0.90
2018-09-28T19:36:17.407Z,0.80
2018-09-28T19:38:48.183Z,0.90
2018-09-28T19:41:17.832Z,0.70
2018-09-28T19:43:48.197Z,0.80
2018-09-28T19:46:17.418Z,0.80
2018-09-28T19:48:51.729Z,0.93
2018-09-28T19:51:19.731Z,0.50
2018-09-28T19:53:52.708Z,1.10
2018-09-28T19:56:21.085Z,0.70
2018-09-28T19:58:50.379Z,0.60
2018-09-28T20:01:19.891Z,1.07
2018-09-28T20:03:49.732Z,0.70
2018-09-28T20:06:19.784Z,0.60
2018-09-28T20:08:48.162Z,0.90
2018-09-28T20:11:16.365Z,0.63
2018-09-28T20:13:45.323Z,0.87
2018-09-28T20:16:15.032Z,1.10
2018-09-28T20:18:45.736Z,2.20
2018-09-28T20:21:14.654Z,1.23
2018-09-28T20:23:43.001Z,1.23
2018-09-28T20:26:11.714Z,0.90
2018-09-28T20:28:44.916Z,0.50
2018-09-28T20:31:19.115Z,0.70
2018-09-28T20:33:50.769Z,0.50
2018-09-28T20:36:18.501Z,0.80
2018-09-28T20:38:46.161Z,0.57
2018-09-28T20:41:13.767Z,0.97
2018-09-28T20:43:41.346Z,0.50
2018-09-28T20:46:09.037Z,0.80
2018-09-28T20:48:36.807Z,0.83
2018-09-28T20:51:04.385Z,0.83
2018-09-28T20:53:31.997Z,0.80
2018-09-28T20:56:00.630Z,0.80
2018-09-28T20:58:28.296Z,0.60
2018-09-28T21:00:55.909Z,0.73
2018-09-28T21:03:23.974Z,0.60
2018-09-28T21:05:51.527Z,0.80
2018-09-28T21:08:19.107Z,0.90
2018-09-28T21:10:46.645Z,0.60
2018-09-28T21:13:14.167Z,0.70
2018-09-28T21:15:41.771Z,0.60
2018-09-28T21:18:09.293Z,0.60
2018-09-28T21:20:37.246Z,0.60
2018-09-28T21:23:04.985Z,0.57
2018-09-28T21:25:33.583Z,0.67
2018-09-28T21:28:01.113Z,0.67
2018-09-28T21:30:28.701Z,0.57
2018-09-28T21:32:56.254Z,0.70
2018-09-28T21:35:23.732Z,0.60
2018-09-28T21:37:51.227Z,0.53
2018-09-28T21:40:18.789Z,0.70
2018-09-28T21:42:46.564Z,0.77
2018-09-28T21:45:14.186Z,0.60
2018-09-28T21:47:41.815Z,0.50
2018-09-28T21:50:09.645Z,0.73
2018-09-28T21:52:37.187Z,0.80
2018-09-28T21:55:05.323Z,0.70
2018-09-28T21:57:34.724Z,0.70
2018-09-28T22:00:03.207Z,0.80
2018-09-28T22:02:30.780Z,0.63
2018-09-28T22:04:58.341Z,0.57
2018-09-28T22:07:26.061Z,0.60
2018-09-28T22:09:53.737Z,0.70
2018-09-28T22:12:21.495Z,0.80
2018-09-28T22:14:49.103Z,0.70
2018-09-28T22:17:16.728Z,0.70
2018-09-28T22:19:44.405Z,0.70
2018-09-28T22:22:11.940Z,0.50
2018-09-28T22:24:39.539Z,0.50
2018-09-28T22:27:07.073Z,0.60
2018-09-28T22:29:34.610Z,0.60
2018-09-28T22:32:02.167Z,0.60
2018-09-28T22:34:29.803Z,0.70
2018-09-28T22:36:57.271Z,0.60
2018-09-28T22:39:24.917Z,0.70
2018-09-28T22:41:52.546Z,0.80
2018-09-28T22:44:20.300Z,0.50
2018-09-28T22:46:47.865Z,0.70
2018-09-28T22:49:15.379Z,0.70
2018-09-28T22:51:42.970Z,0.60
2018-09-28T22:54:10.542Z,0.80
2018-09-28T22:56:38.090Z,0.73
2018-09-28T22:59:05.666Z,0.70
2018-09-28T23:01:33.349Z,1.27
2018-09-28T23:04:00.868Z,0.70
2018-09-28T23:06:28.523Z,0.70
2018-09-28T23:08:56.113Z,0.43
2018-09-28T23:11:23.627Z,0.70
2018-09-28T23:13:51.212Z,0.60
2018-09-28T23:16:18.863Z,0.73
2018-09-28T23:18:46.537Z,0.80
2018-09-28T23:21:14.781Z,0.50
2018-09-28T23:23:42.393Z,0.50
2018-09-28T23:26:10.039Z,0.70
2018-09-28T23:28:37.583Z,0.50
2018-09-28T23:31:05.151Z,0.50
2018-09-28T23:33:32.702Z,1.13
2018-09-28T23:36:00.195Z,0.80
2018-09-28T23:38:27.729Z,0.60
2018-09-28T23:40:55.309Z,0.60
2018-09-28T23:43:22.839Z,0.53
2018-09-28T23:45:50.817Z,0.60
2018-09-28T23:48:18.396Z,1.33
2018-09-28T23:50:45.994Z,0.70
2018-09-28T23:53:13.516Z,0.43
2018-09-28T23:55:41.032Z,0.50
2018-09-28T23:58:09.005Z,0.57
